EST,Max TemperatureF,Mean TemperatureF,Min TemperatureF,Max Dew PointF,MeanDew PointF,Min DewpointF,Max Humidity, Mean Humidity, Min Humidity, Max Sea Level PressureIn, Mean Sea Level PressureIn, Min Sea Level PressureIn, Max VisibilityMiles, Mean VisibilityMiles, Min VisibilityMiles, Max Wind SpeedMPH, Mean Wind SpeedMPH, Max Gust SpeedMPH,PrecipitationIn, CloudCover, Events, WindDirDegrees
2013-12-1,55,38,21,32,27,19,100,73,38,30.40,30.21,30.07,10,10,4,7,1,,0.00,0,,50
2013-12-2,53,40,28,34,32,27,100,72,44,30.05,29.95,29.87,10,10,10,7,1,,0.00,6,,325
2013-12-3,59,47,35,50,41,34,100,80,55,30.02,29.96,29.91,10,9,4,8,1,,0.00,6,Rain,157
2013-12-4,53,50,48,52,50,48,100,98,94,30.14,30.07,30.01,7,2,0,6,1,,0.02,8,Fog-Rain,48
2013-12-5,60,56,51,61,56,52,100,100,100,30.16,30.11,30.05,7,2,0,4,0,,0.23,8,Fog-Rain,327
2013-12-6,71,65,57,63,61,55,100,86,68,30.09,30.02,29.98,10,9,2,25,7,36,0.55,8,Rain-Thunderstorm,208
2013-12-7,57,47,37,57,41,32,100,78,54,30.49,30.30,30.05,10,10,5,12,4,17,0.11,6,Rain,68
2013-12-8,37,34,32,36,32,30,100,98,81,30.47,30.41,30.30,10,6,0,9,5,,0.38,8,Rain,58
2013-12-9,44,38,32,43,36,32,100,99,93,30.29,30.16,30.09,10,6,0,5,0,,0.38,7,Fog-Rain,90
2013-12-10,46,39,32,45,32,14,100,78,44,30.33,30.13,29.97,10,8,0,16,3,30,0.28,4,Rain,314
2013-12-11,48,34,21,25,20,14,93,59,32,30.46,30.37,30.31,10,10,10,9,1,,0.00,0,,216
2013-12-12,42,34,26,19,14,7,69,46,23,30.44,30.38,30.33,10,10,10,10,4,17,0.00,0,,317
2013-12-13,48,34,21,28,19,14,86,56,30,30.39,30.33,30.28,10,10,10,7,1,,0.00,0,,205
2013-12-14,35,34,32,36,32,27,100,91,75,30.31,30.09,29.83,10,6,0,8,1,,0.61,7,Fog-Rain,42
2013-12-15,44,38,33,36,31,25,100,76,57,30.11,29.95,29.77,10,8,0,18,6,30,0.00,3,Fog,292
2013-12-16,55,42,28,32,29,25,93,66,36,30.17,30.13,30.10,10,10,10,9,3,16,0.00,1,,241
2013-12-17,60,45,30,39,31,23,93,61,34,30.15,30.06,29.93,10,10,4,16,4,41,0.03,1,Rain,257
2013-12-18,48,38,28,27,18,12,74,48,24,30.31,30.24,30.10,10,10,10,14,4,23,0.00,0,,267
2013-12-19,62,43,24,28,24,19,86,52,26,30.32,30.28,30.23,10,10,10,9,1,,0.00,0,,199
2013-12-20,60,46,32,41,33,25,87,64,39,30.27,30.22,30.16,10,10,10,8,1,,0.00,1,,207
2013-12-21,60,48,37,55,47,36,100,90,72,30.18,30.12,30.04,10,10,5,7,0,,0.00,6,Rain,234
2013-12-22,64,60,55,63,58,55,100,97,88,30.13,30.07,30.00,10,7,1,17,4,30,1.81,8,Rain,212
2013-12-23,59,46,33,59,47,30,100,87,62,30.25,30.13,30.03,10,9,0,16,2,23,0.84,5,Rain,296
2013-12-24,41,32,23,30,21,10,93,66,44,30.49,30.34,30.23,10,10,10,16,4,31,0.01,1,,312
2013-12-25,37,26,15,18,11,3,93,58,26,30.56,30.47,30.39,10,10,10,8,2,,0.00,0,,210
2013-12-26,51,35,19,27,20,14,93,65,30,30.40,30.34,30.27,10,10,10,10,1,,0.00,0,,320
2013-12-27,50,36,23,27,21,18,93,63,28,30.51,30.44,30.39,10,10,10,6,0,,0.00,0,,204
2013-12-28,50,36,23,37,27,19,100,72,40,30.44,30.35,30.19,10,10,5,6,0,,0.14,2,Rain,308
2013-12-29,55,46,37,46,38,32,100,85,58,30.18,29.92,29.79,10,8,2,15,3,25,0.66,4,Rain-Snow,265
2013-12-30,50,41,32,37,33,32,100,76,54,30.17,30.09,29.99,10,10,10,7,2,,0.00,5,,311
2013-12-31,44,37,30,34,23,18,87,60,34,30.40,30.28,30.15,10,10,10,15,2,25,0.00,1,,280